Charleston, West Virginia
Current Conditions -  °F | °C
As of 10:54 PM on Tuesday 21 Oct 2014 (Local Time) from KCRW Reporting Station
Overcast Overcast  
Wind Chill: 45°   Ceiling: 4000
Heat Index: 48°   Visibility: 10mi
Dew Point: 44°   Wind: 7mph
Humidity: 86%   Direction: 350°N
Pressure: 30.09"   Gusts: NA
Location:  38.35°N, 81.64°W
Report Text: KCRW 220254Z 35006KT 10SM FEW028 OVC040 09/07 A3009 RMK AO2 SLP190 60009 T00890067 51015
Loading
Personal Weather Stations






























Interactive Weather Map
Tropical Storm Tracking
New forecast layout! Learn more

10-Day Weather Forecast

Advertisements
Track Severe Weather on mobile